sensor_id;sensor_type;location;lat;lon;timestamp;temperature;humidity
56322;DHT22;42227;6.376;-10.782;2023-08-31T00:02:03;26.10;1.00
56322;DHT22;42227;6.376;-10.782;2023-08-31T00:04:32;26.10;1.00
56322;DHT22;42227;6.376;-10.782;2023-08-31T00:07:00;26.10;1.00
56322;DHT22;42227;6.376;-10.782;2023-08-31T00:09:29;26.10;1.00
56322;DHT22;42227;6.376;-10.782;2023-08-31T00:11:58;26.10;1.00
56322;DHT22;42227;6.376;-10.782;2023-08-31T00:14:26;26.20;1.00
56322;DHT22;42227;6.376;-10.782;2023-08-31T00:16:55;26.30;1.00
56322;DHT22;42227;6.376;-10.782;2023-08-31T00:19:23;26.40;1.00
56322;DHT22;42227;6.376;-10.782;2023-08-31T00:21:52;26.40;1.00
56322;DHT22;42227;6.376;-10.782;2023-08-31T00:24:21;26.50;1.00
56322;DHT22;42227;6.376;-10.782;2023-08-31T00:26:50;26.30;1.00
56322;DHT22;42227;6.376;-10.782;2023-08-31T00:29:18;26.40;1.00
56322;DHT22;42227;6.376;-10.782;2023-08-31T00:31:47;26.20;1.00
56322;DHT22;42227;6.376;-10.782;2023-08-31T00:34:15;26.00;1.00
56322;DHT22;42227;6.376;-10.782;2023-08-31T00:36:44;25.90;1.00
56322;DHT22;42227;6.376;-10.782;2023-08-31T00:39:12;25.90;1.60
56322;DHT22;42227;6.376;-10.782;2023-08-31T00:41:42;25.80;26.70
56322;DHT22;42227;6.376;-10.782;2023-08-31T00:44:11;25.70;84.20
56322;DHT22;42227;6.376;-10.782;2023-08-31T00:46:42;25.70;99.90
56322;DHT22;42227;6.376;-10.782;2023-08-31T00:49:11;25.70;99.90
56322;DHT22;42227;6.376;-10.782;2023-08-31T00:51:40;25.70;99.90
56322;DHT22;42227;6.376;-10.782;2023-08-31T00:54:09;25.70;99.90
56322;DHT22;42227;6.376;-10.782;2023-08-31T00:56:37;25.60;99.90
56322;DHT22;42227;6.376;-10.782;2023-08-31T00:59:08;25.60;99.90
56322;DHT22;42227;6.376;-10.782;2023-08-31T01:01:41;25.70;99.90
56322;DHT22;42227;6.376;-10.782;2023-08-31T01:04:48;26.00;99.90
56322;DHT22;42227;6.376;-10.782;2023-08-31T01:13:00;26.20;99.90
56322;DHT22;42227;6.376;-10.782;2023-08-31T01:15:31;26.20;99.90
56322;DHT22;42227;6.376;-10.782;2023-08-31T01:18:01;26.00;99.90
56322;DHT22;42227;6.376;-10.782;2023-08-31T01:20:44;25.80;99.90
56322;DHT22;42227;6.376;-10.782;2023-08-31T01:23:19;25.80;99.90
56322;DHT22;42227;6.376;-10.782;2023-08-31T01:25:48;25.70;99.90
56322;DHT22;42227;6.376;-10.782;2023-08-31T01:28:17;25.70;99.90
56322;DHT22;42227;6.376;-10.782;2023-08-31T01:30:45;25.60;99.90
56322;DHT22;42227;6.376;-10.782;2023-08-31T01:33:15;25.50;99.90
56322;DHT22;42227;6.376;-10.782;2023-08-31T01:35:46;25.50;99.90
56322;DHT22;42227;6.376;-10.782;2023-08-31T01:38:21;25.60;99.90
56322;DHT22;42227;6.376;-10.782;2023-08-31T01:41:09;25.50;99.90
56322;DHT22;42227;6.376;-10.782;2023-08-31T01:43:41;25.60;99.90
56322;DHT22;42227;6.376;-10.782;2023-08-31T01:46:10;25.70;99.90
56322;DHT22;42227;6.376;-10.782;2023-08-31T01:48:40;26.00;99.90
56322;DHT22;42227;6.376;-10.782;2023-08-31T01:51:09;26.20;99.90
56322;DHT22;42227;6.376;-10.782;2023-08-31T01:53:39;26.30;99.90
56322;DHT22;42227;6.376;-10.782;2023-08-31T01:56:08;26.40;99.90
56322;DHT22;42227;6.376;-10.782;2023-08-31T01:58:37;26.40;99.90
56322;DHT22;42227;6.376;-10.782;2023-08-31T02:01:05;26.40;96.90
56322;DHT22;42227;6.376;-10.782;2023-08-31T02:03:34;26.40;55.80
56322;DHT22;42227;6.376;-10.782;2023-08-31T02:06:02;26.30;43.50
56322;DHT22;42227;6.376;-10.782;2023-08-31T02:08:31;26.10;41.50
56322;DHT22;42227;6.376;-10.782;2023-08-31T02:11:00;25.90;83.20
56322;DHT22;42227;6.376;-10.782;2023-08-31T02:13:30;25.80;99.90
56322;DHT22;42227;6.376;-10.782;2023-08-31T02:15:58;25.80;99.90
56322;DHT22;42227;6.376;-10.782;2023-08-31T02:18:27;25.70;99.90
56322;DHT22;42227;6.376;-10.782;2023-08-31T02:20:56;25.50;99.90
56322;DHT22;42227;6.376;-10.782;2023-08-31T02:23:24;25.60;99.90
56322;DHT22;42227;6.376;-10.782;2023-08-31T02:25:53;25.50;99.90
56322;DHT22;42227;6.376;-10.782;2023-08-31T02:28:21;25.50;99.90
56322;DHT22;42227;6.376;-10.782;2023-08-31T02:31:01;25.50;99.90
56322;DHT22;42227;6.376;-10.782;2023-08-31T02:33:32;25.50;99.90
56322;DHT22;42227;6.376;-10.782;2023-08-31T02:36:01;25.40;99.90
56322;DHT22;42227;6.376;-10.782;2023-08-31T02:38:29;25.40;99.90
56322;DHT22;42227;6.376;-10.782;2023-08-31T02:40:57;25.60;99.90
56322;DHT22;42227;6.376;-10.782;2023-08-31T02:43:26;25.50;99.90
56322;DHT22;42227;6.376;-10.782;2023-08-31T02:46:01;25.60;99.90
56322;DHT22;42227;6.376;-10.782;2023-08-31T02:48:31;25.70;99.90
56322;DHT22;42227;6.376;-10.782;2023-08-31T02:51:00;25.70;99.90
56322;DHT22;42227;6.376;-10.782;2023-08-31T02:53:32;25.70;99.90
56322;DHT22;42227;6.376;-10.782;2023-08-31T02:56:00;25.80;99.90
56322;DHT22;42227;6.376;-10.782;2023-08-31T02:58:29;25.70;99.90
56322;DHT22;42227;6.376;-10.782;2023-08-31T03:01:11;25.60;99.90
56322;DHT22;42227;6.376;-10.782;2023-08-31T03:03:43;25.50;99.90
56322;DHT22;42227;6.376;-10.782;2023-08-31T03:06:12;25.50;99.90
56322;DHT22;42227;6.376;-10.782;2023-08-31T03:08:40;25.40;99.90
56322;DHT22;42227;6.376;-10.782;2023-08-31T03:11:08;25.40;99.90
56322;DHT22;42227;6.376;-10.782;2023-08-31T03:13:37;25.40;99.90
56322;DHT22;42227;6.376;-10.782;2023-08-31T03:16:05;25.40;99.90
56322;DHT22;42227;6.376;-10.782;2023-08-31T03:18:34;25.30;99.90
56322;DHT22;42227;6.376;-10.782;2023-08-31T03:21:02;25.40;99.90
56322;DHT22;42227;6.376;-10.782;2023-08-31T03:23:30;25.30;99.90
56322;DHT22;42227;6.376;-10.782;2023-08-31T03:25:59;25.40;99.90
56322;DHT22;42227;6.376;-10.782;2023-08-31T03:28:28;25.40;99.90
56322;DHT22;42227;6.376;-10.782;2023-08-31T03:30:57;25.30;99.90
56322;DHT22;42227;6.376;-10.782;2023-08-31T03:33:26;25.50;99.90
56322;DHT22;42227;6.376;-10.782;2023-08-31T03:35:59;25.70;99.90
56322;DHT22;42227;6.376;-10.782;2023-08-31T03:38:28;25.90;99.90
56322;DHT22;42227;6.376;-10.782;2023-08-31T03:40:58;25.90;99.90
56322;DHT22;42227;6.376;-10.782;2023-08-31T03:43:26;25.90;99.90
56322;DHT22;42227;6.376;-10.782;2023-08-31T03:45:56;25.70;99.90
56322;DHT22;42227;6.376;-10.782;2023-08-31T03:48:25;25.60;99.90
56322;DHT22;42227;6.376;-10.782;2023-08-31T03:50:54;25.60;99.90
56322;DHT22;42227;6.376;-10.782;2023-08-31T03:53:22;25.50;99.90
56322;DHT22;42227;6.376;-10.782;2023-08-31T03:55:55;25.50;99.90
56322;DHT22;42227;6.376;-10.782;2023-08-31T03:58:24;25.50;99.90
56322;DHT22;42227;6.376;-10.782;2023-08-31T04:00:54;25.40;99.90
56322;DHT22;42227;6.376;-10.782;2023-08-31T04:03:22;25.40;99.90
56322;DHT22;42227;6.376;-10.782;2023-08-31T04:05:54;25.40;99.90
56322;DHT22;42227;6.376;-10.782;2023-08-31T04:08:23;25.30;99.90
56322;DHT22;42227;6.376;-10.782;2023-08-31T04:10:51;25.30;99.90
56322;DHT22;42227;6.376;-10.782;2023-08-31T04:13:20;25.30;99.90
56322;DHT22;42227;6.376;-10.782;2023-08-31T04:15:49;25.60;99.90
56322;DHT22;42227;6.376;-10.782;2023-08-31T04:18:17;25.70;99.90
56322;DHT22;42227;6.376;-10.782;2023-08-31T04:20:50;25.70;99.90
56322;DHT22;42227;6.376;-10.782;2023-08-31T04:23:20;25.60;99.90
56322;DHT22;42227;6.376;-10.782;2023-08-31T04:25:48;25.50;99.90
56322;DHT22;42227;6.376;-10.782;2023-08-31T04:28:17;25.20;99.90
56322;DHT22;42227;6.376;-10.782;2023-08-31T04:30:45;25.10;99.90
56322;DHT22;42227;6.376;-10.782;2023-08-31T04:33:14;25.00;99.90
56322;DHT22;42227;6.376;-10.782;2023-08-31T04:35:43;25.10;99.90
56322;DHT22;42227;6.376;-10.782;2023-08-31T04:38:11;25.00;99.90
56322;DHT22;42227;6.376;-10.782;2023-08-31T04:40:40;25.00;99.90
56322;DHT22;42227;6.376;-10.782;2023-08-31T04:43:08;25.00;99.90
56322;DHT22;42227;6.376;-10.782;2023-08-31T04:45:37;25.00;99.90
56322;DHT22;42227;6.376;-10.782;2023-08-31T04:48:05;25.00;99.90
56322;DHT22;42227;6.376;-10.782;2023-08-31T04:50:34;25.00;99.90
56322;DHT22;42227;6.376;-10.782;2023-08-31T04:53:04;25.10;99.90
56322;DHT22;42227;6.376;-10.782;2023-08-31T04:55:32;25.20;1.00
56322;DHT22;42227;6.376;-10.782;2023-08-31T04:58:01;25.40;99.90
56322;DHT22;42227;6.376;-10.782;2023-08-31T05:00:29;25.60;99.90
56322;DHT22;42227;6.376;-10.782;2023-08-31T05:02:58;25.60;99.90
56322;DHT22;42227;6.376;-10.782;2023-08-31T05:05:26;25.30;99.90
56322;DHT22;42227;6.376;-10.782;2023-08-31T05:07:55;25.10;99.90
56322;DHT22;42227;6.376;-10.782;2023-08-31T05:10:23;25.00;99.90
56322;DHT22;42227;6.376;-10.782;2023-08-31T05:12:52;25.00;1.00
56322;DHT22;42227;6.376;-10.782;2023-08-31T05:15:20;25.00;1.00
56322;DHT22;42227;6.376;-10.782;2023-08-31T05:17:48;24.90;1.00
56322;DHT22;42227;6.376;-10.782;2023-08-31T05:20:17;24.80;1.00
56322;DHT22;42227;6.376;-10.782;2023-08-31T05:22:45;24.80;1.00
56322;DHT22;42227;6.376;-10.782;2023-08-31T05:25:14;24.90;1.00
56322;DHT22;42227;6.376;-10.782;2023-08-31T05:27:43;24.90;1.00
56322;DHT22;42227;6.376;-10.782;2023-08-31T05:30:11;24.80;1.00
56322;DHT22;42227;6.376;-10.782;2023-08-31T05:32:39;24.90;1.00
56322;DHT22;42227;6.376;-10.782;2023-08-31T05:35:08;25.00;1.00
56322;DHT22;42227;6.376;-10.782;2023-08-31T05:37:36;25.30;1.00
56322;DHT22;42227;6.376;-10.782;2023-08-31T05:40:06;25.50;1.00
56322;DHT22;42227;6.376;-10.782;2023-08-31T05:42:34;25.50;99.90
56322;DHT22;42227;6.376;-10.782;2023-08-31T05:45:03;25.40;99.90
56322;DHT22;42227;6.376;-10.782;2023-08-31T05:47:31;25.30;99.90
56322;DHT22;42227;6.376;-10.782;2023-08-31T05:50:00;25.10;99.90
56322;DHT22;42227;6.376;-10.782;2023-08-31T05:52:28;24.90;1.00
56322;DHT22;42227;6.376;-10.782;2023-08-31T05:54:57;24.90;1.00
56322;DHT22;42227;6.376;-10.782;2023-08-31T05:57:26;25.00;1.00
56322;DHT22;42227;6.376;-10.782;2023-08-31T05:59:54;25.00;1.00
56322;DHT22;42227;6.376;-10.782;2023-08-31T06:02:23;25.00;1.00
56322;DHT22;42227;6.376;-10.782;2023-08-31T06:04:51;25.10;1.00
56322;DHT22;42227;6.376;-10.782;2023-08-31T06:07:20;25.00;1.00
56322;DHT22;42227;6.376;-10.782;2023-08-31T06:09:48;25.00;1.00
56322;DHT22;42227;6.376;-10.782;2023-08-31T06:12:17;24.90;1.00
56322;DHT22;42227;6.376;-10.782;2023-08-31T06:14:45;24.90;1.00
56322;DHT22;42227;6.376;-10.782;2023-08-31T06:17:14;25.10;1.00
56322;DHT22;42227;6.376;-10.782;2023-08-31T06:19:42;25.30;1.00
56322;DHT22;42227;6.376;-10.782;2023-08-31T06:22:10;25.30;1.00
56322;DHT22;42227;6.376;-10.782;2023-08-31T06:24:39;25.40;1.00
56322;DHT22;42227;6.376;-10.782;2023-08-31T06:27:07;25.60;1.00
56322;DHT22;42227;6.376;-10.782;2023-08-31T06:29:36;25.60;99.90
56322;DHT22;42227;6.376;-10.782;2023-08-31T06:32:05;25.50;99.90
56322;DHT22;42227;6.376;-10.782;2023-08-31T06:34:33;25.30;99.90
56322;DHT22;42227;6.376;-10.782;2023-08-31T06:37:02;25.20;1.00
56322;DHT22;42227;6.376;-10.782;2023-08-31T06:39:31;25.30;1.00
56322;DHT22;42227;6.376;-10.782;2023-08-31T06:42:00;25.20;1.00
56322;DHT22;42227;6.376;-10.782;2023-08-31T06:44:30;25.20;1.00
56322;DHT22;42227;6.376;-10.782;2023-08-31T06:46:59;25.20;1.00
56322;DHT22;42227;6.376;-10.782;2023-08-31T06:49:27;25.10;1.00
56322;DHT22;42227;6.376;-10.782;2023-08-31T06:51:56;25.10;1.00
56322;DHT22;42227;6.376;-10.782;2023-08-31T06:54:24;25.10;1.00
56322;DHT22;42227;6.376;-10.782;2023-08-31T06:56:52;25.20;1.00
56322;DHT22;42227;6.376;-10.782;2023-08-31T06:59:21;25.20;1.00
56322;DHT22;42227;6.376;-10.782;2023-08-31T07:01:49;25.20;1.00
56322;DHT22;42227;6.376;-10.782;2023-08-31T07:04:17;25.20;1.00
56322;DHT22;42227;6.376;-10.782;2023-08-31T07:06:46;25.40;1.00
56322;DHT22;42227;6.376;-10.782;2023-08-31T07:09:14;25.70;1.00
56322;DHT22;42227;6.376;-10.782;2023-08-31T07:11:43;25.70;99.90
56322;DHT22;42227;6.376;-10.782;2023-08-31T07:14:11;25.50;99.90
56322;DHT22;42227;6.376;-10.782;2023-08-31T07:16:39;25.50;99.90
56322;DHT22;42227;6.376;-10.782;2023-08-31T07:19:08;25.50;99.90
56322;DHT22;42227;6.376;-10.782;2023-08-31T07:21:36;25.40;99.90
56322;DHT22;42227;6.376;-10.782;2023-08-31T07:24:05;25.30;99.90
56322;DHT22;42227;6.376;-10.782;2023-08-31T07:26:33;25.20;99.90
56322;DHT22;42227;6.376;-10.782;2023-08-31T07:29:02;25.30;1.00
56322;DHT22;42227;6.376;-10.782;2023-08-31T07:31:31;25.40;1.00
56322;DHT22;42227;6.376;-10.782;2023-08-31T07:34:00;25.70;99.90
56322;DHT22;42227;6.376;-10.782;2023-08-31T07:36:28;26.00;99.90
56322;DHT22;42227;6.376;-10.782;2023-08-31T07:38:57;26.30;99.90
56322;DHT22;42227;6.376;-10.782;2023-08-31T07:41:25;26.30;99.90
56322;DHT22;42227;6.376;-10.782;2023-08-31T07:43:53;26.70;99.90
56322;DHT22;42227;6.376;-10.782;2023-08-31T07:46:31;27.80;99.90
56322;DHT22;42227;6.376;-10.782;2023-08-31T07:49:01;31.10;99.90
56322;DHT22;42227;6.376;-10.782;2023-08-31T07:51:30;31.10;99.90
56322;DHT22;42227;6.376;-10.782;2023-08-31T07:54:00;30.50;99.90
56322;DHT22;42227;6.376;-10.782;2023-08-31T07:56:28;30.70;99.90
56322;DHT22;42227;6.376;-10.782;2023-08-31T07:58:56;33.60;99.10
56322;DHT22;42227;6.376;-10.782;2023-08-31T08:01:25;34.70;26.00
56322;DHT22;42227;6.376;-10.782;2023-08-31T08:03:53;35.80;99.90
56322;DHT22;42227;6.376;-10.782;2023-08-31T08:06:22;36.20;99.90
56322;DHT22;42227;6.376;-10.782;2023-08-31T08:08:50;36.70;99.90
56322;DHT22;42227;6.376;-10.782;2023-08-31T08:11:18;36.80;99.90
56322;DHT22;42227;6.376;-10.782;2023-08-31T08:13:47;35.70;99.90
56322;DHT22;42227;6.376;-10.782;2023-08-31T08:16:16;36.20;99.90
56322;DHT22;42227;6.376;-10.782;2023-08-31T08:18:45;35.30;99.90
56322;DHT22;42227;6.376;-10.782;2023-08-31T08:21:14;36.50;99.90
56322;DHT22;42227;6.376;-10.782;2023-08-31T08:23:45;37.40;99.90
56322;DHT22;42227;6.376;-10.782;2023-08-31T08:26:14;37.80;99.90
56322;DHT22;42227;6.376;-10.782;2023-08-31T08:28:42;38.60;99.90
56322;DHT22;42227;6.376;-10.782;2023-08-31T08:31:14;38.80;96.70
56322;DHT22;42227;6.376;-10.782;2023-08-31T08:33:42;39.40;54.10
56322;DHT22;42227;6.376;-10.782;2023-08-31T08:36:11;39.80;48.00
56322;DHT22;42227;6.376;-10.782;2023-08-31T08:38:39;40.20;45.80
56322;DHT22;42227;6.376;-10.782;2023-08-31T08:41:08;40.10;46.60
56322;DHT22;42227;6.376;-10.782;2023-08-31T08:43:37;39.80;48.00
56322;DHT22;42227;6.376;-10.782;2023-08-31T08:46:09;40.40;37.20
56322;DHT22;42227;6.376;-10.782;2023-08-31T08:48:38;40.70;9.10
56322;DHT22;42227;6.376;-10.782;2023-08-31T08:51:07;41.10;1.00
56322;DHT22;42227;6.376;-10.782;2023-08-31T08:53:36;41.20;1.00
56322;DHT22;42227;6.376;-10.782;2023-08-31T08:56:05;41.40;1.00
56322;DHT22;42227;6.376;-10.782;2023-08-31T08:58:34;41.40;1.00
56322;DHT22;42227;6.376;-10.782;2023-08-31T09:01:04;40.50;1.00
56322;DHT22;42227;6.376;-10.782;2023-08-31T09:03:34;40.60;13.90
56322;DHT22;42227;6.376;-10.782;2023-08-31T09:06:03;40.10;16.50
56322;DHT22;42227;6.376;-10.782;2023-08-31T09:08:32;41.30;1.90
56322;DHT22;42227;6.376;-10.782;2023-08-31T09:11:06;39.80;23.50
56322;DHT22;42227;6.376;-10.782;2023-08-31T09:13:35;37.50;99.90
56322;DHT22;42227;6.376;-10.782;2023-08-31T09:16:04;35.50;99.90
56322;DHT22;42227;6.376;-10.782;2023-08-31T09:18:33;34.20;99.90
56322;DHT22;42227;6.376;-10.782;2023-08-31T09:21:01;33.40;99.90
56322;DHT22;42227;6.376;-10.782;2023-08-31T09:23:30;32.30;99.90
56322;DHT22;42227;6.376;-10.782;2023-08-31T09:25:58;31.90;99.90
56322;DHT22;42227;6.376;-10.782;2023-08-31T09:28:28;31.30;99.90
56322;DHT22;42227;6.376;-10.782;2023-08-31T09:31:08;30.90;99.90
56322;DHT22;42227;6.376;-10.782;2023-08-31T09:33:37;31.20;99.90
56322;DHT22;42227;6.376;-10.782;2023-08-31T09:36:07;31.20;99.90
56322;DHT22;42227;6.376;-10.782;2023-08-31T09:38:43;30.80;99.90
56322;DHT22;42227;6.376;-10.782;2023-08-31T09:41:12;30.60;99.90
56322;DHT22;42227;6.376;-10.782;2023-08-31T09:43:41;30.80;99.90
56322;DHT22;42227;6.376;-10.782;2023-08-31T09:46:10;30.90;99.90
56322;DHT22;42227;6.376;-10.782;2023-08-31T09:48:40;30.60;99.90
56322;DHT22;42227;6.376;-10.782;2023-08-31T09:51:10;30.40;99.90
56322;DHT22;42227;6.376;-10.782;2023-08-31T09:53:39;30.10;99.90
56322;DHT22;42227;6.376;-10.782;2023-08-31T09:56:13;29.90;99.90
56322;DHT22;42227;6.376;-10.782;2023-08-31T09:58:45;29.70;99.90
56322;DHT22;42227;6.376;-10.782;2023-08-31T10:01:13;29.80;99.90
56322;DHT22;42227;6.376;-10.782;2023-08-31T10:03:56;29.80;99.90
56322;DHT22;42227;6.376;-10.782;2023-08-31T10:06:26;29.90;99.90
56322;DHT22;42227;6.376;-10.782;2023-08-31T10:08:56;29.80;99.90
56322;DHT22;42227;6.376;-10.782;2023-08-31T10:11:27;29.50;99.90
56322;DHT22;42227;6.376;-10.782;2023-08-31T10:13:58;29.50;99.90
56322;DHT22;42227;6.376;-10.782;2023-08-31T10:16:26;29.30;99.90
56322;DHT22;42227;6.376;-10.782;2023-08-31T10:18:56;29.30;99.90
56322;DHT22;42227;6.376;-10.782;2023-08-31T10:21:25;29.20;99.90
56322;DHT22;42227;6.376;-10.782;2023-08-31T10:23:53;29.70;99.90
56322;DHT22;42227;6.376;-10.782;2023-08-31T10:26:29;30.70;99.90
56322;DHT22;42227;6.376;-10.782;2023-08-31T10:28:59;31.60;99.90
56322;DHT22;42227;6.376;-10.782;2023-08-31T10:31:32;31.90;99.90
56322;DHT22;42227;6.376;-10.782;2023-08-31T10:34:02;32.40;99.90
56322;DHT22;42227;6.376;-10.782;2023-08-31T10:36:44;32.70;99.90
56322;DHT22;42227;6.376;-10.782;2023-08-31T10:39:21;31.90;99.90
56322;DHT22;42227;6.376;-10.782;2023-08-31T10:41:55;32.00;99.90
56322;DHT22;42227;6.376;-10.782;2023-08-31T10:44:25;31.90;99.90
56322;DHT22;42227;6.376;-10.782;2023-08-31T10:46:54;31.40;99.90
56322;DHT22;42227;6.376;-10.782;2023-08-31T10:49:24;30.70;99.90
56322;DHT22;42227;6.376;-10.782;2023-08-31T10:51:57;30.30;99.90
56322;DHT22;42227;6.376;-10.782;2023-08-31T10:54:33;30.30;99.90
56322;DHT22;42227;6.376;-10.782;2023-08-31T10:57:04;30.30;99.90
56322;DHT22;42227;6.376;-10.782;2023-08-31T10:59:52;30.30;99.90
56322;DHT22;42227;6.376;-10.782;2023-08-31T11:05:18;30.70;99.90
56322;DHT22;42227;6.376;-10.782;2023-08-31T11:07:50;30.50;99.90
56322;DHT22;42227;6.376;-10.782;2023-08-31T11:10:20;30.40;99.90
56322;DHT22;42227;6.376;-10.782;2023-08-31T11:12:50;30.40;99.90
56322;DHT22;42227;6.376;-10.782;2023-08-31T11:15:21;30.30;99.90
56322;DHT22;42227;6.376;-10.782;2023-08-31T11:17:50;30.00;99.90
56322;DHT22;42227;6.376;-10.782;2023-08-31T11:20:23;29.90;99.90
56322;DHT22;42227;6.376;-10.782;2023-08-31T11:22:52;29.90;99.90
56322;DHT22;42227;6.376;-10.782;2023-08-31T11:25:21;29.60;99.90
56322;DHT22;42227;6.376;-10.782;2023-08-31T11:27:54;29.70;99.90
56322;DHT22;42227;6.376;-10.782;2023-08-31T11:30:25;30.10;99.90
56322;DHT22;42227;6.376;-10.782;2023-08-31T11:32:54;30.90;99.90
56322;DHT22;42227;6.376;-10.782;2023-08-31T11:35:23;31.30;99.90
56322;DHT22;42227;6.376;-10.782;2023-08-31T11:37:55;31.70;99.90
56322;DHT22;42227;6.376;-10.782;2023-08-31T11:40:23;32.30;99.90
56322;DHT22;42227;6.376;-10.782;2023-08-31T11:42:52;32.00;99.90
56322;DHT22;42227;6.376;-10.782;2023-08-31T11:45:27;32.20;99.90
56322;DHT22;42227;6.376;-10.782;2023-08-31T11:48:07;32.30;99.90
56322;DHT22;42227;6.376;-10.782;2023-08-31T11:50:37;32.00;99.90
56322;DHT22;42227;6.376;-10.782;2023-08-31T11:53:06;31.90;99.90
56322;DHT22;42227;6.376;-10.782;2023-08-31T11:55:34;31.90;99.90
56322;DHT22;42227;6.376;-10.782;2023-08-31T11:58:03;31.90;99.90
56322;DHT22;42227;6.376;-10.782;2023-08-31T12:00:31;31.80;99.90
56322;DHT22;42227;6.376;-10.782;2023-08-31T12:03:01;32.30;99.90
56322;DHT22;42227;6.376;-10.782;2023-08-31T12:05:45;32.20;99.90
56322;DHT22;42227;6.376;-10.782;2023-08-31T12:08:17;32.70;99.90
56322;DHT22;42227;6.376;-10.782;2023-08-31T12:10:51;32.60;99.90
56322;DHT22;42227;6.376;-10.782;2023-08-31T12:13:20;32.30;99.90
56322;DHT22;42227;6.376;-10.782;2023-08-31T12:15:52;32.40;99.90
56322;DHT22;42227;6.376;-10.782;2023-08-31T12:18:21;32.20;99.90
56322;DHT22;42227;6.376;-10.782;2023-08-31T12:20:51;32.30;99.90
56322;DHT22;42227;6.376;-10.782;2023-08-31T12:23:20;32.40;99.90
56322;DHT22;42227;6.376;-10.782;2023-08-31T12:25:55;32.00;99.90
56322;DHT22;42227;6.376;-10.782;2023-08-31T12:28:24;32.10;99.90
56322;DHT22;42227;6.376;-10.782;2023-08-31T12:30:54;31.80;99.90
56322;DHT22;42227;6.376;-10.782;2023-08-31T12:33:23;31.90;99.90
56322;DHT22;42227;6.376;-10.782;2023-08-31T12:35:52;31.90;99.90
56322;DHT22;42227;6.376;-10.782;2023-08-31T12:38:20;31.90;99.90
56322;DHT22;42227;6.376;-10.782;2023-08-31T12:40:49;32.10;99.90
56322;DHT22;42227;6.376;-10.782;2023-08-31T12:43:17;32.20;99.90
56322;DHT22;42227;6.376;-10.782;2023-08-31T12:45:46;32.70;99.90
56322;DHT22;42227;6.376;-10.782;2023-08-31T12:48:15;32.30;99.90
56322;DHT22;42227;6.376;-10.782;2023-08-31T12:50:43;32.40;99.90
56322;DHT22;42227;6.376;-10.782;2023-08-31T12:53:11;31.90;99.90
56322;DHT22;42227;6.376;-10.782;2023-08-31T12:55:40;31.40;99.90
56322;DHT22;42227;6.376;-10.782;2023-08-31T12:58:09;31.10;99.90
56322;DHT22;42227;6.376;-10.782;2023-08-31T13:00:37;30.90;99.90
56322;DHT22;42227;6.376;-10.782;2023-08-31T13:03:06;30.90;99.90
56322;DHT22;42227;6.376;-10.782;2023-08-31T13:05:41;30.80;99.90
56322;DHT22;42227;6.376;-10.782;2023-08-31T13:08:10;30.80;99.90
56322;DHT22;42227;6.376;-10.782;2023-08-31T13:10:39;30.40;99.90
56322;DHT22;42227;6.376;-10.782;2023-08-31T13:13:08;30.20;99.90
56322;DHT22;42227;6.376;-10.782;2023-08-31T13:15:37;30.40;99.90
56322;DHT22;42227;6.376;-10.782;2023-08-31T13:18:05;30.50;99.90
56322;DHT22;42227;6.376;-10.782;2023-08-31T13:20:37;30.50;99.90
56322;DHT22;42227;6.376;-10.782;2023-08-31T13:23:06;30.60;99.90
56322;DHT22;42227;6.376;-10.782;2023-08-31T13:25:35;30.40;99.90
56322;DHT22;42227;6.376;-10.782;2023-08-31T13:28:04;30.70;99.90
56322;DHT22;42227;6.376;-10.782;2023-08-31T13:30:32;31.20;99.90
56322;DHT22;42227;6.376;-10.782;2023-08-31T13:33:01;31.20;99.90
56322;DHT22;42227;6.376;-10.782;2023-08-31T13:35:30;31.20;99.90
56322;DHT22;42227;6.376;-10.782;2023-08-31T13:37:58;31.40;99.90
56322;DHT22;42227;6.376;-10.782;2023-08-31T13:40:26;31.60;99.90
56322;DHT22;42227;6.376;-10.782;2023-08-31T13:42:59;31.80;99.90
56322;DHT22;42227;6.376;-10.782;2023-08-31T13:45:28;32.00;99.90
56322;DHT22;42227;6.376;-10.782;2023-08-31T13:47:57;32.50;99.90
56322;DHT22;42227;6.376;-10.782;2023-08-31T13:50:29;32.50;99.90
56322;DHT22;42227;6.376;-10.782;2023-08-31T13:52:58;32.10;99.90
56322;DHT22;42227;6.376;-10.782;2023-08-31T13:55:26;31.90;99.90
56322;DHT22;42227;6.376;-10.782;2023-08-31T13:57:54;32.00;99.90
56322;DHT22;42227;6.376;-10.782;2023-08-31T14:00:23;32.30;99.90
56322;DHT22;42227;6.376;-10.782;2023-08-31T14:02:51;32.40;99.90
56322;DHT22;42227;6.376;-10.782;2023-08-31T14:05:20;32.90;99.90
56322;DHT22;42227;6.376;-10.782;2023-08-31T14:07:48;32.60;99.90
56322;DHT22;42227;6.376;-10.782;2023-08-31T14:10:17;32.30;99.90
56322;DHT22;42227;6.376;-10.782;2023-08-31T14:12:47;31.60;99.90
56322;DHT22;42227;6.376;-10.782;2023-08-31T14:15:16;31.40;99.90
56322;DHT22;42227;6.376;-10.782;2023-08-31T14:17:44;31.30;99.90
56322;DHT22;42227;6.376;-10.782;2023-08-31T14:20:13;31.20;99.90
56322;DHT22;42227;6.376;-10.782;2023-08-31T14:22:41;31.00;99.90
56322;DHT22;42227;6.376;-10.782;2023-08-31T14:25:13;30.90;99.90
56322;DHT22;42227;6.376;-10.782;2023-08-31T14:27:42;31.00;99.90
56322;DHT22;42227;6.376;-10.782;2023-08-31T14:30:10;30.90;99.90
56322;DHT22;42227;6.376;-10.782;2023-08-31T14:32:39;30.80;99.90
56322;DHT22;42227;6.376;-10.782;2023-08-31T14:35:07;30.60;99.90
56322;DHT22;42227;6.376;-10.782;2023-08-31T14:37:36;30.30;99.90
56322;DHT22;42227;6.376;-10.782;2023-08-31T14:40:05;30.00;99.90
56322;DHT22;42227;6.376;-10.782;2023-08-31T14:42:33;29.60;99.90
56322;DHT22;42227;6.376;-10.782;2023-08-31T14:45:02;29.40;99.90
56322;DHT22;42227;6.376;-10.782;2023-08-31T14:47:31;29.20;99.90
56322;DHT22;42227;6.376;-10.782;2023-08-31T14:49:59;29.10;99.90
56322;DHT22;42227;6.376;-10.782;2023-08-31T14:52:28;28.70;99.90
56322;DHT22;42227;6.376;-10.782;2023-08-31T14:54:56;28.70;99.90
56322;DHT22;42227;6.376;-10.782;2023-08-31T14:57:24;28.40;1.00
56322;DHT22;42227;6.376;-10.782;2023-08-31T14:59:53;28.50;1.00
56322;DHT22;42227;6.376;-10.782;2023-08-31T15:02:21;28.40;1.00
56322;DHT22;42227;6.376;-10.782;2023-08-31T15:04:49;28.60;1.00
56322;DHT22;42227;6.376;-10.782;2023-08-31T15:07:18;28.80;1.00
56322;DHT22;42227;6.376;-10.782;2023-08-31T15:09:46;28.90;1.00
56322;DHT22;42227;6.376;-10.782;2023-08-31T15:12:15;29.00;1.00
56322;DHT22;42227;6.376;-10.782;2023-08-31T15:14:43;28.80;1.00
56322;DHT22;42227;6.376;-10.782;2023-08-31T15:17:11;28.50;1.00
56322;DHT22;42227;6.376;-10.782;2023-08-31T15:19:42;28.30;1.00
56322;DHT22;42227;6.376;-10.782;2023-08-31T15:22:10;28.30;1.00
56322;DHT22;42227;6.376;-10.782;2023-08-31T15:24:39;28.20;1.00
56322;DHT22;42227;6.376;-10.782;2023-08-31T15:27:08;28.10;1.00
56322;DHT22;42227;6.376;-10.782;2023-08-31T15:29:36;28.10;1.00
56322;DHT22;42227;6.376;-10.782;2023-08-31T15:32:05;28.10;1.00
56322;DHT22;42227;6.376;-10.782;2023-08-31T15:34:33;28.20;1.00
56322;DHT22;42227;6.376;-10.782;2023-08-31T15:37:01;28.40;1.00
56322;DHT22;42227;6.376;-10.782;2023-08-31T15:39:30;28.40;1.00
56322;DHT22;42227;6.376;-10.782;2023-08-31T15:41:58;28.50;1.00
56322;DHT22;42227;6.376;-10.782;2023-08-31T15:44:27;28.70;1.00